Details for Ryanair at LICJ




Go Back


Latest METAR
Local Time

LICJ 232320Z 21013KT 9999 SCT035 10/05 Q1002

24/02/2018, 00:51:31

Description
Results
Ryanair Logo
Number of Pilots based at LICJ
0 Pilots Based here
Number of Ryanair Flights Departed from LICJ
2 Flights Departed
Number of Ryanair Flights Arrived at LICJ
2 Flights Arrived
Number of Ryanair Schedules Departing from LICJ
47 Schedules
Number of Ryanair Schedules Arriving at LICJ
48 Schedules
Number of Ryanair Schedules Departing from LICJ availible today
22 Schedules Today
Number of Ryanair Schedules Arriving at LICJ availible today
22 Schedules Today
Average Landing Rate at LICJ
-167 fpm
Ryanair Average Landing Rate at LICJ
-248 fpm
Total Fuel Purchased at LICJ by Ryanair
10,766.92 kgs / 23,736.75 lbs

Pilots Based at LICJ


Pilot ID
Pilot Name
Pilot Rank
No. of Flights
No. of Flying Hours
There are no pilots assigned to this hub!   Will you be the first?
Content